»·PEaware :: N27WT KGYR-KTUS

N27WT :: KGYR-KTUS

FLIGHT INFORMATION

Flight Status: Arrived
Operator: Privately registered:
United States
More flights under this callsign
Pilot: Anonymous 43672 (43672)
Aircraft: CIRRUS SR-20
(SR20)
More flights by this aircraft type
Origin: KGYR Phoenix Goodyear
United States
Destination: KTUS Tucson Intl
United States
More flights between these airports :: More routes between these airports
Route:
File this flight plan on PilotEdge
Remarks:
Altitude:
(Current/Filed)
5,500ft
Speed:
(Current/Filed)
0kts
Departed: 09-Aug-23 01:46 PM
Arrived: 09-Aug-23 02:31 PM
Distance/Time
Traveled:
106nm/0:45
Distance/Time
To Go:
Arrived

Flight Plot

Page will automatically refresh every two minutes.

Flight plan parsing failed; only flown route is shown


Map Options




Map Legend


Flown Route
Filed Route
Departure Airport
Arrival Airport
Navaid (VOR, NDB)
Fix

Horizontal Profiles

Position Reports

Time Latitude Longitude Heading Altitude Ground
Speed
09-Aug-23 13:44 33.101387 -112.146654 175 5482ft 143kts
09-Aug-23 13:45 33.061355 -112.136559 163 5527ft 147kts
09-Aug-23 13:46 33.021433 -112.121895 163 5624ft 139kts
09-Aug-23 13:47 32.988442 -112.109589 163 6301ft 120kts
09-Aug-23 13:48 32.956361 -112.097461 163 6788ft 121kts
09-Aug-23 13:49 32.923848 -112.088515 163 7270ft 120kts
09-Aug-23 13:50 32.889877 -112.084267 180 7509ft 135kts
09-Aug-23 13:51 32.860722 -112.056328 132 7502ft 142kts
09-Aug-23 13:52 32.831788 -112.023524 135 7500ft 145kts
09-Aug-23 13:53 32.801819 -111.991246 135 7500ft 145kts
09-Aug-23 13:54 32.771823 -111.958940 136 7499ft 145kts
09-Aug-23 13:55 32.738545 -111.931415 144 7499ft 146kts
09-Aug-23 13:56 32.704439 -111.905145 144 7499ft 146kts
09-Aug-23 13:57 32.672357 -111.880431 144 7499ft 146kts
09-Aug-23 13:58 32.636240 -111.852608 144 7499ft 146kts
09-Aug-23 13:59 32.602156 -111.826351 144 7501ft 146kts
09-Aug-23 14:00 32.568130 -111.800180 144 7505ft 146kts
09-Aug-23 14:01 32.534884 -111.772706 139 7510ft 145kts
09-Aug-23 14:02 32.503099 -111.743410 139 7513ft 145kts
09-Aug-23 14:03 32.471267 -111.713989 139 7519ft 145kts
09-Aug-23 14:04 32.439160 -111.684501 139 7458ft 147kts
09-Aug-23 14:05 32.407056 -111.655183 139 7467ft 145kts
09-Aug-23 14:06 32.382186 -111.618575 121 7470ft 143kts
09-Aug-23 14:07 32.360231 -111.579308 119 7475ft 143kts
09-Aug-23 14:08 32.341133 -111.535905 115 7475ft 153kts
09-Aug-23 14:09 32.323853 -111.489453 114 7471ft 154kts
09-Aug-23 14:10 32.308359 -111.442322 112 7452ft 154kts
09-Aug-23 14:11 32.293171 -111.392981 112 6971ft 161kts
09-Aug-23 14:12 32.291799 -111.340602 78 6486ft 166kts
09-Aug-23 14:13 32.302492 -111.287058 78 5982ft 167kts
09-Aug-23 14:14 32.313100 -111.233398 78 5489ft 166kts
09-Aug-23 14:15 32.326515 -111.183123 35 5473ft 161kts
09-Aug-23 14:16 32.349486 -111.209026 265 5476ft 146kts
09-Aug-23 14:17 32.316946 -111.219549 159 5441ft 151kts
09-Aug-23 14:18 32.277833 -111.200496 149 5443ft 154kts
09-Aug-23 14:19 32.244251 -111.168710 136 5448ft 155kts
09-Aug-23 14:20 32.224809 -111.130430 61 5453ft 136kts
09-Aug-23 14:21 32.244881 -111.140893 240 5458ft 121kts
09-Aug-23 14:22 32.217913 -111.129600 129 5455ft 130kts
09-Aug-23 14:23 32.195906 -111.095504 126 5341ft 129kts
09-Aug-23 14:24 32.174504 -111.058951 126 4867ft 141kts
09-Aug-23 14:25 32.151915 -111.019687 126 4380ft 146kts
09-Aug-23 14:26 32.128659 -110.980622 131 3869ft 140kts
09-Aug-23 14:27 32.103069 -110.946978 136 3380ft 131kts
09-Aug-23 14:28 32.081452 -110.915925 131 3448ft 104kts
09-Aug-23 14:29 32.094589 -110.914148 306 2897ft 80kts
09-Aug-23 14:30 32.108241 -110.930104 309 2624ft 37kts
09-Aug-23 14:31 32.111260 -110.932255 46 2620ft 0kts
09-Aug-23 14:32 32.111990 -110.932049 321 2620ft 8kts
09-Aug-23 14:33 32.115356 -110.936005 313 2609ft 20kts
09-Aug-23 14:34 32.118533 -110.939707 314 2598ft 12kts
09-Aug-23 14:35 32.121338 -110.943263 296 2586ft 16kts
09-Aug-23 14:36 32.123803 -110.945883 311 2576ft 4kts
09-Aug-23 14:37 32.125752 -110.946503 38 2571ft 12kts
09-Aug-23 14:38 32.125727 -110.945218 145 2572ft 0kts

Navigation Log

Ident Type
Flight plan parsing failed, navigation log unavailable